Time;durP1;ratioP1;P1;durP2;ratioP2;P2;SDS_P1;SDS_P2;PMS_P1;PMS_P2;Temp;Humidity;BMP_temperature;BMP_pressure;BME280_temperature;BME280_humidity;BME280_pressure;Samples;Min_cycle;Max_cycle;Signal;HPM_P1;HPM_P2
2021/10/29 00:02:10;;;;;;;35.00;24.42;;;11.20;91.20;;;;;;5100912;28;20075;-79
2021/10/29 00:04:36;;;;;;;31.52;22.77;;;11.10;91.30;;;;;;5098140;28;20557;-79
2021/10/29 00:07:02;;;;;;;32.22;23.98;;;11.10;91.50;;;;;;5103066;28;20122;-79
2021/10/29 00:09:30;;;;;;;32.63;23.85;;;11.10;91.40;;;;;;5110984;28;20607;-79
2021/10/29 00:11:56;;;;;;;29.63;23.20;;;11.10;91.40;;;;;;5100434;28;20058;-79
2021/10/29 00:14:22;;;;;;;33.05;24.30;;;11.10;91.60;;;;;;5097062;28;20044;-79
2021/10/29 00:16:48;;;;;;;38.50;24.58;;;11.00;91.70;;;;;;5099843;28;20028;-79
2021/10/29 00:19:14;;;;;;;29.60;23.33;;;11.00;91.90;;;;;;5096520;28;20028;-79
2021/10/29 00:21:39;;;;;;;29.45;23.90;;;10.90;92.10;;;;;;5104279;28;20023;-79
2021/10/29 00:24:05;;;;;;;36.22;25.13;;;10.90;92.20;;;;;;5098146;28;20058;-79
2021/10/29 00:26:31;;;;;;;33.17;25.25;;;10.90;92.30;;;;;;5104125;28;20019;-79
2021/10/29 00:28:56;;;;;;;28.38;24.50;;;10.80;92.20;;;;;;5106720;28;20016;-80
2021/10/29 00:31:22;;;;;;;30.63;25.08;;;10.90;92.30;;;;;;5101939;27;20439;-81
2021/10/29 00:33:48;;;;;;;37.13;26.05;;;10.80;92.40;;;;;;5109238;28;20023;-80
2021/10/29 00:36:13;;;;;;;31.45;25.42;;;10.80;92.40;;;;;;5105237;28;20024;-80
2021/10/29 00:38:39;;;;;;;31.20;24.05;;;10.80;92.40;;;;;;5094069;28;20036;-79
2021/10/29 00:41:05;;;;;;;36.92;26.50;;;10.70;92.50;;;;;;5106976;28;20382;-80
2021/10/29 00:43:31;;;;;;;29.83;24.15;;;10.70;92.60;;;;;;5106716;28;20024;-78
2021/10/29 00:45:57;;;;;;;33.67;24.98;;;10.70;92.70;;;;;;5111220;28;20030;-78
2021/10/29 00:48:23;;;;;;;38.00;26.67;;;10.60;92.80;;;;;;5111489;28;20374;-78
2021/10/29 00:50:49;;;;;;;31.20;25.60;;;10.60;92.80;;;;;;5104636;28;20020;-78
2021/10/29 00:53:15;;;;;;;34.15;25.20;;;10.60;92.70;;;;;;5092796;28;20027;-78
2021/10/29 00:55:41;;;;;;;32.40;25.13;;;10.60;92.90;;;;;;5098777;28;20111;-78
2021/10/29 00:58:07;;;;;;;30.77;24.20;;;10.50;92.70;;;;;;5108620;28;20482;-79
2021/10/29 01:00:33;;;;;;;34.03;25.45;;;10.50;92.80;;;;;;5102272;28;20015;-78
2021/10/29 01:02:59;;;;;;;34.65;25.05;;;10.50;92.60;;;;;;5098815;28;20024;-78
2021/10/29 01:05:25;;;;;;;36.40;26.42;;;10.50;92.50;;;;;;5098501;28;20020;-78
2021/10/29 01:07:51;;;;;;;30.83;25.30;;;10.50;92.60;;;;;;5111757;28;20030;-79
2021/10/29 01:10:16;;;;;;;31.60;25.10;;;10.50;92.40;;;;;;5108639;28;20050;-78
2021/10/29 01:12:42;;;;;;;32.20;25.60;;;10.40;92.40;;;;;;5098310;28;20020;-78
2021/10/29 01:15:09;;;;;;;36.17;26.42;;;10.40;92.60;;;;;;5099462;28;20020;-78
2021/10/29 01:17:36;;;;;;;32.72;25.70;;;10.40;92.50;;;;;;5105420;28;20488;-77
2021/10/29 01:20:03;;;;;;;34.42;25.75;;;10.40;92.50;;;;;;5103807;28;20024;-78
2021/10/29 01:22:29;;;;;;;31.30;25.83;;;10.40;92.40;;;;;;5099324;28;20634;-78
2021/10/29 01:24:54;;;;;;;34.08;25.55;;;10.40;92.60;;;;;;5099353;28;20028;-78
2021/10/29 01:27:21;;;;;;;30.67;25.00;;;10.40;92.50;;;;;;5098726;28;20016;-79
2021/10/29 01:29:48;;;;;;;32.83;26.00;;;10.40;92.60;;;;;;5094187;28;20020;-78
2021/10/29 01:32:14;;;;;;;32.25;24.67;;;10.30;92.30;;;;;;5104163;28;20020;-78
2021/10/29 01:34:44;;;;;;;32.10;26.10;;;10.30;92.40;;;;;;5103764;28;20022;-78
2021/10/29 01:37:13;;;;;;;32.78;25.35;;;10.30;92.40;;;;;;5102082;28;20061;-78
2021/10/29 01:39:40;;;;;;;32.28;25.98;;;10.30;92.60;;;;;;5102873;28;20023;-78
2021/10/29 01:42:07;;;;;;;30.63;26.08;;;10.30;92.70;;;;;;5102745;28;20020;-77
2021/10/29 01:44:32;;;;;;;33.80;26.48;;;10.20;92.60;;;;;;5109886;28;20020;-77
2021/10/29 01:46:58;;;;;;;33.42;25.70;;;10.20;92.50;;;;;;5101886;28;20536;-78
2021/10/29 01:49:24;;;;;;;37.83;27.08;;;10.20;92.30;;;;;;5095427;28;20019;-78
2021/10/29 01:51:49;;;;;;;38.50;26.60;;;10.20;92.50;;;;;;5100373;28;20488;-78
2021/10/29 01:54:15;;;;;;;33.67;26.30;;;10.10;92.60;;;;;;5104799;28;20034;-78
2021/10/29 01:56:41;;;;;;;33.63;25.02;;;10.10;92.60;;;;;;5102940;28;20426;-78
2021/10/29 01:59:06;;;;;;;37.10;26.55;;;10.10;92.40;;;;;;5095949;28;20054;-77
2021/10/29 02:01:33;;;;;;;33.80;25.30;;;10.10;92.60;;;;;;5092034;28;20103;-77
2021/10/29 02:03:58;;;;;;;35.35;25.75;;;10.10;92.70;;;;;;5097576;28;20075;-78
2021/10/29 02:06:24;;;;;;;32.38;25.80;;;10.10;92.60;;;;;;5097909;28;20442;-78
2021/10/29 02:08:50;;;;;;;32.55;26.33;;;10.00;92.60;;;;;;5104520;28;20032;-78
2021/10/29 02:11:16;;;;;;;32.85;24.85;;;10.00;92.60;;;;;;5098500;28;20028;-77
2021/10/29 02:13:43;;;;;;;41.08;26.73;;;10.00;92.50;;;;;;5108419;28;20020;-78
2021/10/29 02:16:08;;;;;;;34.63;26.75;;;10.00;92.60;;;;;;5095356;28;20024;-78
2021/10/29 02:18:35;;;;;;;30.85;24.67;;;10.00;92.80;;;;;;5109778;28;20044;-78
2021/10/29 02:21:01;;;;;;;34.33;25.15;;;10.00;92.50;;;;;;5103522;28;20076;-77
2021/10/29 02:23:27;;;;;;;31.67;24.50;;;10.00;92.30;;;;;;5090998;28;20539;-78
2021/10/29 02:25:53;;;;;;;34.70;24.80;;;10.00;92.30;;;;;;5095087;28;20016;-77
2021/10/29 02:28:20;;;;;;;33.50;24.85;;;10.00;92.30;;;;;;5109144;28;20020;-77
2021/10/29 02:30:46;;;;;;;31.05;25.42;;;9.90;92.40;;;;;;5101808;28;20031;-78
2021/10/29 02:33:14;;;;;;;33.13;24.17;;;9.90;92.30;;;;;;5093318;28;20559;-78
2021/10/29 02:35:40;;;;;;;31.23;24.00;;;9.90;92.50;;;;;;5096566;28;20122;-78
2021/10/29 02:38:06;;;;;;;31.52;25.77;;;9.90;92.50;;;;;;5108111;28;20529;-77
2021/10/29 02:40:31;;;;;;;32.92;25.25;;;9.90;92.60;;;;;;5113397;28;20032;-78
2021/10/29 02:42:57;;;;;;;36.00;25.05;;;9.90;92.50;;;;;;5099023;28;20067;-78
2021/10/29 02:45:23;;;;;;;37.55;24.85;;;9.80;92.50;;;;;;5100326;28;20596;-78
2021/10/29 02:47:49;;;;;;;31.63;24.80;;;9.90;92.40;;;;;;5110291;28;20031;-77
2021/10/29 02:50:17;;;;;;;33.65;25.05;;;9.90;92.30;;;;;;5105453;28;20023;-78
2021/10/29 02:52:43;;;;;;;34.05;25.48;;;9.90;92.30;;;;;;5114184;28;20120;-78
2021/10/29 02:55:10;;;;;;;31.67;24.70;;;9.90;92.40;;;;;;5102706;28;20510;-78
2021/10/29 02:57:36;;;;;;;33.88;25.48;;;9.90;92.30;;;;;;5106644;28;20067;-78
2021/10/29 03:00:12;;;;;;;33.78;24.67;;;9.80;92.60;;;;;;5104746;28;20030;-78
2021/10/29 03:02:39;;;;;;;36.45;24.55;;;9.90;92.40;;;;;;5108809;28;20089;-78
2021/10/29 03:05:06;;;;;;;35.88;24.23;;;9.90;92.60;;;;;;5104634;28;20118;-78
2021/10/29 03:07:32;;;;;;;33.13;24.27;;;9.90;92.30;;;;;;5100047;28;20085;-78
2021/10/29 03:09:58;;;;;;;34.28;24.05;;;9.90;92.20;;;;;;5111215;28;20474;-78
2021/10/29 03:12:24;;;;;;;31.95;24.05;;;9.90;92.30;;;;;;5098380;28;20028;-78
2021/10/29 03:14:51;;;;;;;30.13;24.52;;;9.90;92.30;;;;;;5101524;28;20044;-78
2021/10/29 03:17:17;;;;;;;37.70;27.35;;;9.90;92.40;;;;;;5113336;28;20043;-77
2021/10/29 03:19:43;;;;;;;36.13;25.13;;;10.00;92.40;;;;;;5104783;28;20035;-78
2021/10/29 03:22:08;;;;;;;35.67;24.70;;;10.00;92.40;;;;;;5113564;28;20036;-78
2021/10/29 03:24:35;;;;;;;33.10;24.55;;;9.90;92.50;;;;;;5106639;28;20390;-78
2021/10/29 03:27:00;;;;;;;34.95;25.33;;;10.00;92.50;;;;;;5113409;28;20024;-78
2021/10/29 03:29:26;;;;;;;35.58;25.90;;;10.00;92.50;;;;;;5107015;28;20038;-78
2021/10/29 03:31:52;;;;;;;35.58;25.23;;;10.00;92.40;;;;;;5113596;28;20028;-78
2021/10/29 03:34:18;;;;;;;31.30;24.55;;;9.90;92.60;;;;;;5109256;28;20022;-78
2021/10/29 03:36:44;;;;;;;31.73;23.60;;;9.90;92.70;;;;;;5102899;28;20028;-78
2021/10/29 03:39:14;;;;;;;35.63;25.45;;;9.90;92.70;;;;;;5107985;28;20051;-82
2021/10/29 03:41:51;;;;;;;33.80;25.98;;;9.90;92.80;;;;;;5114001;28;20080;-81
2021/10/29 03:47:09;;;;;;;34.72;25.42;;;9.90;92.70;;;;;;5090714;28;20024;-81
2021/10/29 03:49:48;;;;;;;35.60;26.33;;;9.90;92.80;;;;;;5106458;28;20610;-81
2021/10/29 03:52:25;;;;;;;35.08;25.17;;;9.90;92.90;;;;;;5106380;28;20102;-81
2021/10/29 03:55:05;;;;;;;34.95;25.80;;;9.90;92.90;;;;;;5106471;27;20114;-80
2021/10/29 03:57:31;;;;;;;34.85;25.95;;;9.90;93.10;;;;;;5113918;28;20063;-82
2021/10/29 03:59:56;;;;;;;32.35;25.15;;;9.90;93.40;;;;;;5102687;28;20415;-81
2021/10/29 04:02:23;;;;;;;33.47;26.23;;;9.90;93.40;;;;;;5095674;27;20020;-80
2021/10/29 04:04:49;;;;;;;31.75;26.15;;;9.90;93.30;;;;;;5098250;28;20020;-80
2021/10/29 04:07:15;;;;;;;32.70;26.77;;;9.80;93.60;;;;;;5105033;28;20028;-80
2021/10/29 04:09:44;;;;;;;34.90;25.83;;;9.80;93.50;;;;;;5108727;28;20031;-81
2021/10/29 04:12:11;;;;;;;35.90;25.98;;;9.80;93.70;;;;;;5110888;28;20465;-80
2021/10/29 04:14:36;;;;;;;31.75;26.20;;;9.80;93.80;;;;;;5100565;28;20047;-80
2021/10/29 04:17:03;;;;;;;33.83;25.70;;;9.80;94.00;;;;;;5104361;28;20084;-80
2021/10/29 04:19:30;;;;;;;39.30;27.42;;;9.70;94.10;;;;;;5108745;28;20498;-79
2021/10/29 04:21:59;;;;;;;34.92;26.65;;;9.70;94.10;;;;;;5102012;28;20424;-79
2021/10/29 04:24:26;;;;;;;39.80;28.02;;;9.70;94.30;;;;;;5105357;28;20024;-79
2021/10/29 04:26:53;;;;;;;34.42;27.65;;;9.70;94.50;;;;;;5104585;28;20020;-80
2021/10/29 04:29:25;;;;;;;33.72;27.58;;;9.70;94.60;;;;;;5100175;28;20111;-79
2021/10/29 04:31:50;;;;;;;39.05;28.85;;;9.60;94.80;;;;;;5098431;28;20028;-79
2021/10/29 04:34:21;;;;;;;42.40;28.15;;;9.60;94.80;;;;;;5097061;28;20382;-80
2021/10/29 04:36:48;;;;;;;39.78;27.48;;;9.60;95.00;;;;;;5100294;28;20097;-81
2021/10/29 04:39:15;;;;;;;39.70;28.40;;;9.60;94.90;;;;;;5097958;28;20039;-81
2021/10/29 04:41:41;;;;;;;37.53;27.85;;;9.60;95.00;;;;;;5099649;28;20636;-80
2021/10/29 04:44:07;;;;;;;36.78;28.17;;;9.60;95.20;;;;;;5098040;28;20028;-80
2021/10/29 04:46:34;;;;;;;38.33;28.40;;;9.60;95.30;;;;;;5104095;28;20027;-80
2021/10/29 04:48:59;;;;;;;37.30;29.17;;;9.50;95.50;;;;;;5107668;28;20028;-80
2021/10/29 04:51:25;;;;;;;41.05;29.00;;;9.50;95.50;;;;;;5119997;27;20529;-80
2021/10/29 04:53:51;;;;;;;34.97;28.55;;;9.50;95.60;;;;;;5097903;28;20023;-79
2021/10/29 04:56:17;;;;;;;40.03;30.17;;;9.50;95.60;;;;;;5099836;28;20493;-79
2021/10/29 04:58:42;;;;;;;40.38;29.58;;;9.50;95.90;;;;;;5111238;28;20027;-79
2021/10/29 05:01:08;;;;;;;44.78;30.73;;;9.40;96.30;;;;;;5108118;28;20015;-79
2021/10/29 05:03:34;;;;;;;38.03;29.33;;;9.40;96.20;;;;;;5095599;28;20015;-82
2021/10/29 05:06:00;;;;;;;39.65;29.42;;;9.40;96.10;;;;;;5101117;28;20489;-81
2021/10/29 05:08:25;;;;;;;40.95;29.52;;;9.40;96.10;;;;;;5102781;28;20081;-89
2021/10/29 05:10:51;;;;;;;37.30;29.08;;;9.40;96.10;;;;;;5098417;28;20020;-85
2021/10/29 05:13:17;;;;;;;41.55;30.08;;;9.40;96.20;;;;;;5111027;28;20531;-85
2021/10/29 05:15:42;;;;;;;38.10;30.50;;;9.40;96.40;;;;;;5102942;28;20500;-84
2021/10/29 05:18:15;;;;;;;38.25;30.27;;;9.40;96.50;;;;;;5115100;28;20104;-90
2021/10/29 05:20:41;;;;;;;39.95;30.98;;;9.40;96.60;;;;;;5114260;28;20227;-88
2021/10/29 05:23:07;;;;;;;46.58;29.40;;;9.30;97.00;;;;;;5095378;28;20398;-80
2021/10/29 05:25:33;;;;;;;42.33;30.13;;;9.40;96.70;;;;;;5100461;28;20383;-83
2021/10/29 05:27:59;;;;;;;43.67;30.45;;;9.40;96.90;;;;;;5092652;28;20031;-82
2021/10/29 05:30:25;;;;;;;41.83;29.90;;;9.40;96.90;;;;;;5102480;28;20067;-83
2021/10/29 05:32:50;;;;;;;44.85;30.98;;;9.30;96.90;;;;;;5098851;28;20038;-82
2021/10/29 05:35:16;;;;;;;37.63;29.85;;;9.30;97.00;;;;;;5103667;28;20091;-82
2021/10/29 05:37:42;;;;;;;39.25;31.25;;;9.30;97.20;;;;;;5099698;28;20040;-83
2021/10/29 05:40:09;;;;;;;43.72;31.33;;;9.30;97.50;;;;;;5099643;28;20070;-83
2021/10/29 05:42:35;;;;;;;40.75;30.35;;;9.30;97.50;;;;;;5105511;28;20030;-82
2021/10/29 05:45:02;;;;;;;40.40;30.48;;;9.30;97.40;;;;;;5107821;28;20114;-81
2021/10/29 05:47:28;;;;;;;40.65;30.88;;;9.30;97.50;;;;;;5105639;28;20016;-82
2021/10/29 05:49:55;;;;;;;38.28;30.45;;;9.30;97.80;;;;;;5101120;28;20154;-81
2021/10/29 05:52:22;;;;;;;41.17;30.48;;;9.30;97.60;;;;;;5100342;28;20107;-81
2021/10/29 05:57:17;;;;;;;38.08;30.77;;;9.30;97.60;;;;;;5110721;28;20019;-84
2021/10/29 05:59:43;;;;;;;40.83;31.60;;;9.30;97.40;;;;;;5102842;28;20050;-83
2021/10/29 06:02:08;;;;;;;43.90;29.75;;;9.30;97.70;;;;;;5103808;28;20019;-83
2021/10/29 06:04:34;;;;;;;37.47;30.40;;;9.30;97.90;;;;;;5103790;28;20020;-81
2021/10/29 06:07:00;;;;;;;43.30;30.13;;;9.30;97.90;;;;;;5102364;28;20059;-87
2021/10/29 06:09:26;;;;;;;42.30;30.65;;;9.30;97.70;;;;;;5108165;28;20023;-86
2021/10/29 06:11:52;;;;;;;40.45;30.98;;;9.30;97.70;;;;;;5102695;28;20031;-83
2021/10/29 06:14:19;;;;;;;40.47;31.30;;;9.40;97.70;;;;;;5103803;28;20028;-82
2021/10/29 06:16:44;;;;;;;39.15;30.48;;;9.40;97.50;;;;;;5105596;28;20097;-81
2021/10/29 06:19:11;;;;;;;43.92;29.98;;;9.50;97.70;;;;;;5100208;28;20592;-84
2021/10/29 06:21:47;;;;;;;40.40;30.55;;;9.50;97.50;;;;;;5110311;28;20420;-84
2021/10/29 06:24:15;;;;;;;43.15;31.15;;;9.50;97.60;;;;;;5097565;28;20027;-82
2021/10/29 06:26:49;;;;;;;38.55;30.63;;;9.60;97.50;;;;;;5111022;28;20500;-85
2021/10/29 06:29:15;;;;;;;43.65;29.85;;;9.70;97.30;;;;;;5104468;28;20389;-85
2021/10/29 06:31:41;;;;;;;37.20;28.50;;;9.80;97.40;;;;;;5108577;28;20019;-80
2021/10/29 06:34:07;;;;;;;39.58;30.58;;;9.80;97.20;;;;;;5101717;28;20035;-82
2021/10/29 06:36:33;;;;;;;37.45;29.60;;;9.90;97.90;;;;;;5106772;28;20031;-83
2021/10/29 06:39:00;;;;;;;39.72;30.95;;;9.90;96.70;;;;;;5106660;28;20072;-81
2021/10/29 06:41:27;;;;;;;40.33;30.27;;;10.00;96.40;;;;;;5100718;28;20017;-90
2021/10/29 06:59:54;;;;;;;44.38;30.15;;;10.30;96.30;;;;;;5099910;28;20035;-80
2021/10/29 07:02:55;;;;;;;42.42;32.08;;;10.40;95.90;;;;;;5104490;28;20028;-82
2021/10/29 07:40:46;;;;;;;38.50;30.60;;;11.50;93.70;;;;;;5107229;28;20041;-81
2021/10/29 07:43:26;;;;;;;40.92;30.52;;;11.60;93.20;;;;;;5107170;28;20027;-79
2021/10/29 07:45:52;;;;;;;40.40;29.73;;;11.70;93.10;;;;;;5104149;28;20701;-78
2021/10/29 07:48:18;;;;;;;39.80;29.30;;;11.80;93.10;;;;;;5108198;28;20081;-80
2021/10/29 07:50:44;;;;;;;36.13;29.30;;;11.90;92.90;;;;;;5102546;28;20107;-80
2021/10/29 07:53:09;;;;;;;41.00;30.30;;;11.90;92.80;;;;;;5111220;28;20104;-79
2021/10/29 07:55:35;;;;;;;36.97;30.85;;;12.00;92.90;;;;;;5111759;28;20385;-80
2021/10/29 07:58:02;;;;;;;39.45;30.98;;;12.10;92.90;;;;;;5108833;28;20040;-79
2021/10/29 08:00:29;;;;;;;37.13;29.10;;;12.10;92.50;;;;;;5101714;28;20022;-82
2021/10/29 08:02:55;;;;;;;39.22;29.67;;;12.20;92.40;;;;;;5104153;28;20077;-80
2021/10/29 08:05:21;;;;;;;37.08;29.73;;;12.30;91.90;;;;;;5100662;28;20023;-81
2021/10/29 08:07:51;;;;;;;40.45;30.20;;;12.40;92.20;;;;;;5100540;28;20395;-81
2021/10/29 08:10:18;;;;;;;39.78;29.55;;;12.40;92.00;;;;;;5106168;28;20027;-80
2021/10/29 08:12:43;;;;;;;39.80;30.95;;;12.50;91.90;;;;;;5103237;28;20543;-80
2021/10/29 08:15:10;;;;;;;35.33;29.83;;;12.60;91.70;;;;;;5103846;28;20028;-82
2021/10/29 08:17:36;;;;;;;36.70;30.70;;;12.70;91.80;;;;;;5105491;28;20197;-80
2021/10/29 08:20:08;;;;;;;39.88;30.13;;;12.80;91.70;;;;;;5103002;28;20401;-81
2021/10/29 08:22:36;;;;;;;40.70;29.37;;;12.90;91.20;;;;;;5102221;28;20019;-82
2021/10/29 08:25:02;;;;;;;39.85;29.50;;;12.90;91.20;;;;;;5103179;28;20051;-80
2021/10/29 08:27:28;;;;;;;38.92;29.60;;;13.00;91.10;;;;;;5092984;28;20054;-80
2021/10/29 08:29:55;;;;;;;38.55;29.58;;;13.10;91.40;;;;;;5098382;28;20059;-82
2021/10/29 08:32:20;;;;;;;40.63;29.65;;;13.20;90.60;;;;;;5105455;28;20077;-81
2021/10/29 08:34:46;;;;;;;37.13;29.75;;;13.20;90.70;;;;;;5105316;28;20020;-81
2021/10/29 08:37:12;;;;;;;35.20;30.10;;;13.30;90.50;;;;;;5101385;27;20023;-82
2021/10/29 08:39:38;;;;;;;34.15;29.25;;;13.40;90.70;;;;;;5097350;28;20024;-83
2021/10/29 08:42:06;;;;;;;42.35;30.67;;;13.50;90.50;;;;;;5097184;28;20509;-84
2021/10/29 08:44:33;;;;;;;41.83;30.73;;;13.50;90.20;;;;;;5105753;28;20111;-82
2021/10/29 08:47:02;;;;;;;38.63;28.98;;;13.60;90.10;;;;;;5110556;28;20115;-82
2021/10/29 08:49:33;;;;;;;35.95;28.98;;;13.60;90.20;;;;;;5104861;28;20827;-80
2021/10/29 08:52:02;;;;;;;40.67;30.67;;;13.70;89.80;;;;;;5103082;28;20474;-82
2021/10/29 08:54:28;;;;;;;40.40;29.75;;;13.80;89.80;;;;;;5098975;28;20020;-82
2021/10/29 08:56:55;;;;;;;34.35;28.92;;;13.90;89.50;;;;;;5099664;28;20031;-80
2021/10/29 08:59:33;;;;;;;38.58;30.15;;;14.00;88.20;;;;;;5096646;28;20027;-80
2021/10/29 09:32:44;;;;;;;37.20;27.70;;;14.90;83.10;;;;;;5106157;28;20038;-79
2021/10/29 09:35:13;;;;;;;30.20;26.02;;;15.00;82.50;;;;;;5104032;28;20048;-79
2021/10/29 09:38:04;;;;;;;33.97;25.38;;;15.10;82.10;;;;;;5104169;28;20031;-79
2021/10/29 09:40:32;;;;;;;32.53;25.85;;;15.10;83.00;;;;;;5102802;28;20493;-82
2021/10/29 09:43:13;;;;;;;33.03;25.88;;;15.30;81.40;;;;;;5098039;28;20028;-80
2021/10/29 09:45:50;;;;;;;28.05;25.02;;;15.30;81.10;;;;;;5102339;28;20436;-81
2021/10/29 09:48:22;;;;;;;32.13;25.95;;;15.40;80.60;;;;;;5095282;28;20028;-80
2021/10/29 09:50:52;;;;;;;32.30;26.40;;;15.50;80.90;;;;;;5098338;28;20027;-81
2021/10/29 09:58:49;;;;;;;28.23;23.33;;;15.70;80.10;;;;;;5107588;28;20383;-80
2021/10/29 10:01:15;;;;;;;26.35;23.10;;;15.90;78.60;;;;;;5097104;28;20031;-79
2021/10/29 10:03:42;;;;;;;26.63;22.15;;;15.90;79.10;;;;;;5109434;28;20575;-82
2021/10/29 10:06:09;;;;;;;25.88;22.48;;;16.10;79.80;;;;;;5105135;28;20474;-79
2021/10/29 10:08:38;;;;;;;27.20;22.73;;;16.30;78.10;;;;;;5093563;28;20019;-80
2021/10/29 10:11:05;;;;;;;24.77;21.95;;;16.40;77.70;;;;;;5102339;28;20012;-79
2021/10/29 10:13:33;;;;;;;30.85;22.90;;;16.50;78.00;;;;;;5093478;28;20429;-80
2021/10/29 10:16:01;;;;;;;26.88;21.20;;;16.50;76.50;;;;;;5097664;28;20383;-79
2021/10/29 10:18:28;;;;;;;29.90;21.98;;;16.60;76.60;;;;;;5096675;28;20040;-79
2021/10/29 10:20:56;;;;;;;27.80;22.90;;;16.60;75.20;;;;;;5097890;28;20024;-80
2021/10/29 10:23:37;;;;;;;29.52;21.50;;;16.70;75.10;;;;;;5099810;28;20306;-81
2021/10/29 10:48:39;;;;;;;24.27;21.25;;;17.70;72.80;;;;;;5092587;28;20016;-81
2021/10/29 10:52:12;;;;;;;24.55;20.48;;;17.80;70.90;;;;;;5106807;28;20024;-79
2021/10/29 11:10:58;;;;;;;34.35;22.35;;;18.60;67.40;;;;;;5109381;28;20062;-77
2021/10/29 11:13:26;;;;;;;30.80;23.02;;;18.60;70.10;;;;;;5117209;28;20402;-77
2021/10/29 11:16:05;;;;;;;25.38;22.10;;;18.90;69.10;;;;;;5100354;28;20020;-83
2021/10/29 11:18:35;;;;;;;23.83;21.33;;;19.10;67.90;;;;;;5100071;28;20100;-77
2021/10/29 11:21:09;;;;;;;30.17;23.13;;;19.20;66.80;;;;;;5104211;28;20412;-85
2021/10/29 11:23:35;;;;;;;24.20;21.35;;;19.30;68.80;;;;;;5105378;28;20053;-80
2021/10/29 11:26:04;;;;;;;23.98;21.25;;;19.40;69.80;;;;;;5121199;28;20027;-82
2021/10/29 11:28:43;;;;;;;27.77;21.45;;;19.50;67.80;;;;;;5116108;28;20045;-86
2021/10/29 11:31:11;;;;;;;25.98;22.15;;;19.60;68.70;;;;;;5109314;28;20470;-84
2021/10/29 11:33:45;;;;;;;24.20;21.25;;;19.70;67.60;;;;;;5099436;28;20024;-83
2021/10/29 11:36:16;;;;;;;29.65;21.52;;;19.90;66.30;;;;;;5101775;28;20073;-83
2021/10/29 11:38:47;;;;;;;26.63;21.30;;;20.00;65.20;;;;;;5100588;28;20023;-80
2021/10/29 11:41:20;;;;;;;28.70;21.60;;;20.00;65.60;;;;;;5103178;28;20012;-82
2021/10/29 11:43:46;;;;;;;23.25;19.55;;;20.00;65.40;;;;;;5110167;28;20096;-81
2021/10/29 11:46:13;;;;;;;31.10;19.52;;;19.90;63.70;;;;;;5107044;28;20478;-82
2021/10/29 11:48:54;;;;;;;21.92;17.13;;;19.70;63.90;;;;;;5099228;28;20032;-90
2021/10/29 11:51:23;;;;;;;18.77;15.48;;;19.50;67.70;;;;;;5105053;28;20028;-85
2021/10/29 12:09:40;;;;;;;20.83;15.93;;;21.90;65.90;;;;;;5105769;28;20027;-79
2021/10/29 12:12:14;;;;;;;18.45;16.55;;;23.20;60.10;;;;;;5102586;28;20105;-80
2021/10/29 12:14:44;;;;;;;18.38;16.48;;;23.40;60.50;;;;;;5100182;28;20129;-80
2021/10/29 12:17:22;;;;;;;18.92;16.42;;;23.40;58.80;;;;;;5105477;28;20072;-82
2021/10/29 12:19:52;;;;;;;22.38;17.30;;;23.00;58.80;;;;;;5101983;28;20418;-80
2021/10/29 12:27:45;;;;;;;18.70;16.20;;;23.50;58.60;;;;;;5094047;28;20028;-79
2021/10/29 13:03:59;;;;;;;44.45;22.38;;;27.10;50.00;;;;;;5107471;28;20485;-79
2021/10/29 13:06:33;;;;;;;444.40;190.67;;;28.00;48.20;;;;;;5106251;28;20030;-86
2021/10/29 13:09:00;;;;;;;411.13;156.77;;;29.10;47.20;;;;;;5096624;28;20333;-82
2021/10/29 13:11:34;;;;;;;167.65;97.18;;;29.00;46.90;;;;;;5106742;28;20012;-79
2021/10/29 13:14:02;;;;;;;72.38;47.60;;;28.00;47.80;;;;;;5097031;28;20028;-81
2021/10/29 13:16:29;;;;;;;27.27;20.17;;;28.00;47.40;;;;;;5109771;28;20031;-80
2021/10/29 13:35:20;;;;;;;21.27;16.48;;;26.00;56.30;;;;;;5094931;28;20106;-87
2021/10/29 13:51:34;;;;;;;15.60;13.98;;;24.70;59.90;;;;;;5097638;28;20069;-86
2021/10/29 14:01:42;;;;;;;50.55;39.50;;;25.90;56.40;;;;;;5105136;28;20034;-79
2021/10/29 14:28:52;;;;;;;285.63;147.80;;;18.30;78.00;;;;;;5102303;28;20128;-91
2021/10/29 14:31:30;;;;;;;972.35;612.65;;;18.00;81.60;;;;;;5116079;28;20024;-89
2021/10/29 14:34:02;;;;;;;505.42;282.15;;;18.00;82.80;;;;;;5111785;28;20063;-91
2021/10/29 14:36:40;;;;;;;391.83;204.27;;;17.90;82.70;;;;;;5102694;28;20587;-84
2021/10/29 14:39:11;;;;;;;584.80;331.50;;;17.80;85.40;;;;;;5101029;28;20394;-83
2021/10/29 14:42:25;;;;;;;681.53;411.92;;;17.90;85.90;;;;;;5102273;28;20046;-80
2021/10/29 14:44:35;;;;;;;608.67;367.25;;;18.00;86.20;;;;;;5095931;28;20552;-82
2021/10/29 15:00:49;;;;;;;486.80;245.30;;;17.00;92.10;;;;;;5101003;28;20031;-83
2021/10/29 15:03:45;;;;;;;188.27;78.43;;;17.00;92.30;;;;;;5113430;28;20020;-84
2021/10/29 15:28:13;;;;;;;21.00;14.25;;;16.80;94.00;;;;;;5098783;28;20028;-79
2021/10/29 15:51:31;;;;;;;22.30;18.00;;;14.80;99.90;;;;;;5099020;28;20017;-82
2021/10/29 15:53:59;;;;;;;23.73;17.90;;;14.80;99.90;;;;;;5101359;28;20041;-80
2021/10/29 15:56:39;;;;;;;31.10;20.58;;;14.60;99.90;;;;;;5101507;28;20465;-85
2021/10/29 16:18:00;;;;;;;47.97;23.98;;;14.10;99.90;;;;;;5097026;28;20604;-81
2021/10/29 16:20:26;;;;;;;40.97;24.63;;;14.10;99.90;;;;;;5103302;28;20106;-81
2021/10/29 16:22:54;;;;;;;33.80;23.30;;;14.00;99.90;;;;;;5108557;28;20024;-80
2021/10/29 16:25:23;;;;;;;39.65;27.58;;;13.90;99.90;;;;;;5099603;28;20031;-81
2021/10/29 16:28:00;;;;;;;35.03;26.75;;;13.80;99.90;;;;;;5111992;28;20463;-82
2021/10/29 16:30:27;;;;;;;37.17;25.40;;;13.60;99.90;;;;;;5107200;28;20088;-81
2021/10/29 16:35:38;;;;;;;41.78;29.08;;;13.30;99.90;;;;;;5104870;28;20020;-80
2021/10/29 16:38:06;;;;;;;34.83;28.25;;;13.10;99.90;;;;;;5100705;28;20420;-80
2021/10/29 16:40:32;;;;;;;36.97;28.35;;;13.00;99.90;;;;;;5100499;28;20016;-79
2021/10/29 16:42:58;;;;;;;38.55;27.38;;;12.90;99.90;;;;;;5109354;28;20032;-79
2021/10/29 16:45:25;;;;;;;33.70;26.65;;;12.80;99.90;;;;;;5099557;28;20047;-81
2021/10/29 16:47:51;;;;;;;52.80;28.95;;;12.70;99.90;;;;;;5108841;28;20031;-81
2021/10/29 16:50:20;;;;;;;41.17;28.42;;;12.60;99.90;;;;;;5107013;28;20031;-82
2021/10/29 16:52:46;;;;;;;40.88;29.88;;;12.50;99.90;;;;;;5110485;28;20097;-80
2021/10/29 16:55:12;;;;;;;39.70;28.55;;;12.60;99.90;;;;;;5099724;28;20020;-87
2021/10/29 16:57:38;;;;;;;44.30;29.88;;;12.60;99.90;;;;;;5106112;28;20450;-81
2021/10/29 17:00:06;;;;;;;46.95;32.22;;;12.60;99.90;;;;;;5097268;28;20149;-79
2021/10/29 17:02:32;;;;;;;40.78;30.67;;;12.60;99.90;;;;;;5101912;28;20145;-80
2021/10/29 17:04:58;;;;;;;41.85;31.27;;;12.50;99.90;;;;;;5100660;28;20142;-79
2021/10/29 17:07:23;;;;;;;45.92;31.85;;;12.40;99.90;;;;;;5098563;28;20554;-78
2021/10/29 17:09:50;;;;;;;39.85;30.45;;;12.30;99.90;;;;;;5093354;28;20036;-77
2021/10/29 17:12:17;;;;;;;39.13;31.73;;;12.30;99.90;;;;;;5099988;28;20024;-81
2021/10/29 17:14:43;;;;;;;45.83;33.05;;;12.20;99.90;;;;;;5104912;28;20020;-85
2021/10/29 17:17:09;;;;;;;48.95;33.95;;;12.20;99.90;;;;;;5102674;28;20020;-84
2021/10/29 17:19:35;;;;;;;44.17;34.05;;;12.10;99.90;;;;;;5102165;28;20064;-82
2021/10/29 17:22:01;;;;;;;49.10;36.83;;;12.10;99.90;;;;;;5101409;28;20035;-80
2021/10/29 17:24:27;;;;;;;43.90;32.30;;;12.10;99.90;;;;;;5106584;28;20020;-79
2021/10/29 17:26:53;;;;;;;44.72;33.53;;;12.10;99.90;;;;;;5101720;28;20103;-81
2021/10/29 17:29:21;;;;;;;47.88;34.47;;;12.10;99.90;;;;;;5105828;28;20024;-81
2021/10/29 17:31:47;;;;;;;47.15;34.78;;;12.10;99.90;;;;;;5098603;28;20451;-84
2021/10/29 17:34:13;;;;;;;49.47;35.60;;;12.10;99.90;;;;;;5102378;28;20382;-80
2021/10/29 17:36:39;;;;;;;51.13;36.35;;;12.00;99.90;;;;;;5112559;28;20015;-80
2021/10/29 17:39:07;;;;;;;47.08;35.70;;;12.10;99.90;;;;;;5105310;28;20118;-84
2021/10/29 17:41:33;;;;;;;46.72;36.83;;;12.10;99.90;;;;;;5100156;28;20427;-83
2021/10/29 17:43:59;;;;;;;47.42;34.58;;;12.10;99.90;;;;;;5098638;28;20052;-85
2021/10/29 18:02:24;;;;;;;46.88;38.60;;;12.10;99.90;;;;;;5106132;27;20391;-91
2021/10/29 18:04:56;;;;;;;51.83;37.20;;;12.10;99.90;;;;;;5091765;28;20107;-89
2021/10/29 18:07:25;;;;;;;49.67;38.17;;;12.00;99.90;;;;;;5094348;28;20051;-88
2021/10/29 18:09:51;;;;;;;49.80;38.17;;;12.10;99.90;;;;;;5090776;28;20032;-84
2021/10/29 18:12:21;;;;;;;52.08;38.45;;;12.00;99.90;;;;;;5090979;28;20826;-89
2021/10/29 18:14:48;;;;;;;51.60;37.50;;;12.00;99.90;;;;;;5089412;28;20027;-86
2021/10/29 18:17:15;;;;;;;53.60;37.38;;;12.00;99.90;;;;;;5084186;28;20036;-85